sensor_id;sensor_type;location;lat;lon;timestamp;temperature;humidity
3701;DHT22;1866;48.374;10.766;2023-05-24T00:01:06;12.90;1.00
3701;DHT22;1866;48.374;10.766;2023-05-24T00:03:35;12.90;1.00
3701;DHT22;1866;48.374;10.766;2023-05-24T00:06:04;12.70;1.00
3701;DHT22;1866;48.374;10.766;2023-05-24T00:08:33;12.70;1.00
3701;DHT22;1866;48.374;10.766;2023-05-24T00:11:00;12.60;1.00
3701;DHT22;1866;48.374;10.766;2023-05-24T00:13:29;12.80;1.00
3701;DHT22;1866;48.374;10.766;2023-05-24T00:15:57;12.70;1.00
3701;DHT22;1866;48.374;10.766;2023-05-24T00:18:26;12.70;1.00
3701;DHT22;1866;48.374;10.766;2023-05-24T00:20:56;12.80;1.00
3701;DHT22;1866;48.374;10.766;2023-05-24T00:23:29;12.70;1.00
3701;DHT22;1866;48.374;10.766;2023-05-24T00:25:57;12.70;1.00
3701;DHT22;1866;48.374;10.766;2023-05-24T00:28:25;12.90;1.00
3701;DHT22;1866;48.374;10.766;2023-05-24T00:30:52;12.80;1.00
3701;DHT22;1866;48.374;10.766;2023-05-24T00:33:20;12.60;1.00
3701;DHT22;1866;48.374;10.766;2023-05-24T00:35:48;12.80;1.00
3701;DHT22;1866;48.374;10.766;2023-05-24T00:38:19;12.70;1.00
3701;DHT22;1866;48.374;10.766;2023-05-24T00:40:46;12.70;1.00
3701;DHT22;1866;48.374;10.766;2023-05-24T00:43:14;12.70;1.00
3701;DHT22;1866;48.374;10.766;2023-05-24T00:45:44;12.80;1.00
3701;DHT22;1866;48.374;10.766;2023-05-24T00:48:12;12.60;1.00
3701;DHT22;1866;48.374;10.766;2023-05-24T00:50:41;12.50;1.00
3701;DHT22;1866;48.374;10.766;2023-05-24T00:53:08;12.70;1.00
3701;DHT22;1866;48.374;10.766;2023-05-24T00:55:35;12.70;1.00
3701;DHT22;1866;48.374;10.766;2023-05-24T00:58:03;12.70;1.00
3701;DHT22;1866;48.374;10.766;2023-05-24T01:00:31;12.60;1.00
3701;DHT22;1866;48.374;10.766;2023-05-24T01:02:58;12.50;1.00
3701;DHT22;1866;48.374;10.766;2023-05-24T01:05:25;12.50;1.00
3701;DHT22;1866;48.374;10.766;2023-05-24T01:08:03;12.50;1.00
3701;DHT22;1866;48.374;10.766;2023-05-24T01:10:42;12.40;1.00
3701;DHT22;1866;48.374;10.766;2023-05-24T01:13:17;12.40;1.00
3701;DHT22;1866;48.374;10.766;2023-05-24T01:15:50;12.40;1.00
3701;DHT22;1866;48.374;10.766;2023-05-24T01:18:23;12.40;1.00
3701;DHT22;1866;48.374;10.766;2023-05-24T01:21:02;12.30;1.00
3701;DHT22;1866;48.374;10.766;2023-05-24T01:23:40;12.30;1.00
3701;DHT22;1866;48.374;10.766;2023-05-24T01:26:18;12.30;1.00
3701;DHT22;1866;48.374;10.766;2023-05-24T01:28:48;12.30;1.00
3701;DHT22;1866;48.374;10.766;2023-05-24T01:31:17;12.30;1.00
3701;DHT22;1866;48.374;10.766;2023-05-24T01:33:48;12.20;1.00
3701;DHT22;1866;48.374;10.766;2023-05-24T01:36:16;12.20;1.00
3701;DHT22;1866;48.374;10.766;2023-05-24T01:38:43;12.30;1.00
3701;DHT22;1866;48.374;10.766;2023-05-24T01:41:17;12.20;1.00
3701;DHT22;1866;48.374;10.766;2023-05-24T01:43:55;12.20;1.00
3701;DHT22;1866;48.374;10.766;2023-05-24T01:46:34;12.10;1.00
3701;DHT22;1866;48.374;10.766;2023-05-24T01:49:16;12.00;1.00
3701;DHT22;1866;48.374;10.766;2023-05-24T01:51:48;11.90;1.00
3701;DHT22;1866;48.374;10.766;2023-05-24T01:54:20;12.00;1.00
3701;DHT22;1866;48.374;10.766;2023-05-24T01:56:51;11.90;1.00
3701;DHT22;1866;48.374;10.766;2023-05-24T01:59:21;11.70;1.00
3701;DHT22;1866;48.374;10.766;2023-05-24T02:01:49;11.90;1.00
3701;DHT22;1866;48.374;10.766;2023-05-24T02:04:17;11.80;1.00
3701;DHT22;1866;48.374;10.766;2023-05-24T02:06:45;11.90;1.00
3701;DHT22;1866;48.374;10.766;2023-05-24T02:09:11;11.90;1.00
3701;DHT22;1866;48.374;10.766;2023-05-24T02:11:39;11.80;1.00
3701;DHT22;1866;48.374;10.766;2023-05-24T02:14:06;11.80;1.00
3701;DHT22;1866;48.374;10.766;2023-05-24T02:16:35;11.90;1.00
3701;DHT22;1866;48.374;10.766;2023-05-24T02:19:08;11.80;1.00
3701;DHT22;1866;48.374;10.766;2023-05-24T02:21:35;11.90;1.00
3701;DHT22;1866;48.374;10.766;2023-05-24T02:24:02;11.90;1.00
3701;DHT22;1866;48.374;10.766;2023-05-24T02:26:31;11.90;1.00
3701;DHT22;1866;48.374;10.766;2023-05-24T02:28:58;11.70;1.00
3701;DHT22;1866;48.374;10.766;2023-05-24T02:31:25;11.80;1.00
3701;DHT22;1866;48.374;10.766;2023-05-24T02:33:54;11.80;1.00
3701;DHT22;1866;48.374;10.766;2023-05-24T02:36:21;11.70;1.00
3701;DHT22;1866;48.374;10.766;2023-05-24T02:38:49;11.70;1.00
3701;DHT22;1866;48.374;10.766;2023-05-24T02:41:16;11.60;1.00
3701;DHT22;1866;48.374;10.766;2023-05-24T02:43:43;11.50;1.00
3701;DHT22;1866;48.374;10.766;2023-05-24T02:46:10;11.60;1.00
3701;DHT22;1866;48.374;10.766;2023-05-24T02:48:38;11.40;1.00
3701;DHT22;1866;48.374;10.766;2023-05-24T02:51:07;11.20;1.00
3701;DHT22;1866;48.374;10.766;2023-05-24T02:53:34;11.10;1.00
3701;DHT22;1866;48.374;10.766;2023-05-24T02:56:00;11.20;1.00
3701;DHT22;1866;48.374;10.766;2023-05-24T02:58:27;11.20;1.00
3701;DHT22;1866;48.374;10.766;2023-05-24T03:00:55;11.10;1.00
3701;DHT22;1866;48.374;10.766;2023-05-24T03:03:21;11.20;1.00
3701;DHT22;1866;48.374;10.766;2023-05-24T03:05:48;11.10;1.00
3701;DHT22;1866;48.374;10.766;2023-05-24T03:08:17;11.10;1.00
3701;DHT22;1866;48.374;10.766;2023-05-24T03:10:44;11.10;1.00
3701;DHT22;1866;48.374;10.766;2023-05-24T03:13:12;11.10;1.00
3701;DHT22;1866;48.374;10.766;2023-05-24T03:15:40;10.90;1.00
3701;DHT22;1866;48.374;10.766;2023-05-24T03:18:09;10.70;1.00
3701;DHT22;1866;48.374;10.766;2023-05-24T03:20:36;10.70;1.00
3701;DHT22;1866;48.374;10.766;2023-05-24T03:23:03;10.60;1.00
3701;DHT22;1866;48.374;10.766;2023-05-24T03:25:32;10.60;1.00
3701;DHT22;1866;48.374;10.766;2023-05-24T03:27:59;10.70;1.00
3701;DHT22;1866;48.374;10.766;2023-05-24T03:30:28;10.70;1.00
3701;DHT22;1866;48.374;10.766;2023-05-24T03:32:55;10.60;1.00
3701;DHT22;1866;48.374;10.766;2023-05-24T03:35:24;10.60;1.00
3701;DHT22;1866;48.374;10.766;2023-05-24T03:37:51;10.60;1.00
3701;DHT22;1866;48.374;10.766;2023-05-24T03:40:18;10.40;1.00
3701;DHT22;1866;48.374;10.766;2023-05-24T03:42:49;10.50;1.00
3701;DHT22;1866;48.374;10.766;2023-05-24T03:45:16;10.60;1.00
3701;DHT22;1866;48.374;10.766;2023-05-24T03:47:43;10.40;1.00
3701;DHT22;1866;48.374;10.766;2023-05-24T03:50:20;10.30;1.00
3701;DHT22;1866;48.374;10.766;2023-05-24T03:52:47;10.40;1.00
3701;DHT22;1866;48.374;10.766;2023-05-24T03:55:14;10.30;1.00
3701;DHT22;1866;48.374;10.766;2023-05-24T03:57:41;10.20;1.00
3701;DHT22;1866;48.374;10.766;2023-05-24T04:00:10;10.30;1.00
3701;DHT22;1866;48.374;10.766;2023-05-24T04:02:38;10.30;1.00
3701;DHT22;1866;48.374;10.766;2023-05-24T04:05:06;10.20;1.00
3701;DHT22;1866;48.374;10.766;2023-05-24T04:07:35;10.10;1.00
3701;DHT22;1866;48.374;10.766;2023-05-24T04:10:02;10.00;1.00
3701;DHT22;1866;48.374;10.766;2023-05-24T04:12:29;9.90;1.00
3701;DHT22;1866;48.374;10.766;2023-05-24T04:14:57;10.10;1.00
3701;DHT22;1866;48.374;10.766;2023-05-24T04:17:27;10.10;1.00
3701;DHT22;1866;48.374;10.766;2023-05-24T04:19:57;10.10;1.00
3701;DHT22;1866;48.374;10.766;2023-05-24T04:22:24;10.40;1.00
3701;DHT22;1866;48.374;10.766;2023-05-24T04:24:52;10.50;1.00
3701;DHT22;1866;48.374;10.766;2023-05-24T04:27:18;10.30;1.00
3701;DHT22;1866;48.374;10.766;2023-05-24T04:29:47;10.20;1.00
3701;DHT22;1866;48.374;10.766;2023-05-24T04:32:15;10.50;1.00
3701;DHT22;1866;48.374;10.766;2023-05-24T04:34:45;10.40;1.00
3701;DHT22;1866;48.374;10.766;2023-05-24T04:37:13;10.40;1.00
3701;DHT22;1866;48.374;10.766;2023-05-24T04:39:41;10.20;1.00
3701;DHT22;1866;48.374;10.766;2023-05-24T04:42:09;10.20;1.00
3701;DHT22;1866;48.374;10.766;2023-05-24T04:44:39;10.40;1.00
3701;DHT22;1866;48.374;10.766;2023-05-24T04:47:09;10.40;1.00
3701;DHT22;1866;48.374;10.766;2023-05-24T04:49:38;10.30;1.00
3701;DHT22;1866;48.374;10.766;2023-05-24T04:52:06;10.50;1.00
3701;DHT22;1866;48.374;10.766;2023-05-24T04:54:34;10.20;1.00
3701;DHT22;1866;48.374;10.766;2023-05-24T04:57:03;10.10;1.00
3701;DHT22;1866;48.374;10.766;2023-05-24T04:59:32;10.00;1.00
3701;DHT22;1866;48.374;10.766;2023-05-24T05:02:00;10.20;1.00
3701;DHT22;1866;48.374;10.766;2023-05-24T05:04:29;10.40;1.00
3701;DHT22;1866;48.374;10.766;2023-05-24T05:06:58;10.40;1.00
3701;DHT22;1866;48.374;10.766;2023-05-24T05:09:26;10.30;1.00
3701;DHT22;1866;48.374;10.766;2023-05-24T05:11:53;10.20;1.00
3701;DHT22;1866;48.374;10.766;2023-05-24T05:14:20;10.20;1.00
3701;DHT22;1866;48.374;10.766;2023-05-24T05:16:46;10.30;1.00
3701;DHT22;1866;48.374;10.766;2023-05-24T05:19:14;10.50;1.00
3701;DHT22;1866;48.374;10.766;2023-05-24T05:21:42;10.60;1.00
3701;DHT22;1866;48.374;10.766;2023-05-24T05:24:10;10.60;1.00
3701;DHT22;1866;48.374;10.766;2023-05-24T05:26:39;10.50;1.00
3701;DHT22;1866;48.374;10.766;2023-05-24T05:29:08;10.70;1.00
3701;DHT22;1866;48.374;10.766;2023-05-24T05:31:37;10.60;1.00
3701;DHT22;1866;48.374;10.766;2023-05-24T05:34:05;10.80;1.00
3701;DHT22;1866;48.374;10.766;2023-05-24T05:36:34;10.80;1.00
3701;DHT22;1866;48.374;10.766;2023-05-24T05:39:05;11.10;1.00
3701;DHT22;1866;48.374;10.766;2023-05-24T05:41:35;10.90;1.00
3701;DHT22;1866;48.374;10.766;2023-05-24T05:44:04;11.10;1.00
3701;DHT22;1866;48.374;10.766;2023-05-24T05:46:32;11.00;1.00
3701;DHT22;1866;48.374;10.766;2023-05-24T05:48:59;11.00;1.00
3701;DHT22;1866;48.374;10.766;2023-05-24T05:51:26;10.90;1.00
3701;DHT22;1866;48.374;10.766;2023-05-24T05:53:56;11.20;1.00
3701;DHT22;1866;48.374;10.766;2023-05-24T05:56:23;11.20;1.00
3701;DHT22;1866;48.374;10.766;2023-05-24T05:58:50;10.90;1.00
3701;DHT22;1866;48.374;10.766;2023-05-24T06:01:20;11.30;1.00
3701;DHT22;1866;48.374;10.766;2023-05-24T06:03:51;11.20;1.00
3701;DHT22;1866;48.374;10.766;2023-05-24T06:06:18;11.00;1.00
3701;DHT22;1866;48.374;10.766;2023-05-24T06:08:45;10.80;1.00
3701;DHT22;1866;48.374;10.766;2023-05-24T06:11:14;11.20;1.00
3701;DHT22;1866;48.374;10.766;2023-05-24T06:13:42;11.10;1.00
3701;DHT22;1866;48.374;10.766;2023-05-24T06:16:09;11.00;1.00
3701;DHT22;1866;48.374;10.766;2023-05-24T06:18:37;11.40;1.00
3701;DHT22;1866;48.374;10.766;2023-05-24T06:21:05;11.80;1.00
3701;DHT22;1866;48.374;10.766;2023-05-24T06:23:34;12.10;1.00
3701;DHT22;1866;48.374;10.766;2023-05-24T06:26:02;12.20;1.00
3701;DHT22;1866;48.374;10.766;2023-05-24T06:28:29;12.40;1.00
3701;DHT22;1866;48.374;10.766;2023-05-24T06:30:56;12.00;1.00
3701;DHT22;1866;48.374;10.766;2023-05-24T06:33:22;11.90;1.00
3701;DHT22;1866;48.374;10.766;2023-05-24T06:35:51;12.50;1.00
3701;DHT22;1866;48.374;10.766;2023-05-24T06:38:18;12.20;1.00
3701;DHT22;1866;48.374;10.766;2023-05-24T06:40:44;12.50;1.00
3701;DHT22;1866;48.374;10.766;2023-05-24T06:43:12;12.40;1.00
3701;DHT22;1866;48.374;10.766;2023-05-24T06:45:39;12.70;1.00
3701;DHT22;1866;48.374;10.766;2023-05-24T06:48:06;12.90;1.00
3701;DHT22;1866;48.374;10.766;2023-05-24T06:50:33;12.80;1.00
3701;DHT22;1866;48.374;10.766;2023-05-24T06:53:02;12.20;1.00
3701;DHT22;1866;48.374;10.766;2023-05-24T06:55:29;11.90;1.00
3701;DHT22;1866;48.374;10.766;2023-05-24T06:57:55;11.90;1.00
3701;DHT22;1866;48.374;10.766;2023-05-24T07:00:22;12.00;1.00
3701;DHT22;1866;48.374;10.766;2023-05-24T07:02:49;11.70;1.00
3701;DHT22;1866;48.374;10.766;2023-05-24T07:05:16;11.60;1.00
3701;DHT22;1866;48.374;10.766;2023-05-24T07:07:43;12.00;1.00
3701;DHT22;1866;48.374;10.766;2023-05-24T07:10:17;11.80;1.00
3701;DHT22;1866;48.374;10.766;2023-05-24T07:12:45;11.70;1.00
3701;DHT22;1866;48.374;10.766;2023-05-24T07:15:12;11.60;1.00
3701;DHT22;1866;48.374;10.766;2023-05-24T07:17:39;11.80;1.00
3701;DHT22;1866;48.374;10.766;2023-05-24T07:20:07;11.70;1.00
3701;DHT22;1866;48.374;10.766;2023-05-24T07:22:35;11.80;1.00
3701;DHT22;1866;48.374;10.766;2023-05-24T07:25:03;11.90;1.00
3701;DHT22;1866;48.374;10.766;2023-05-24T07:27:33;12.10;1.00
3701;DHT22;1866;48.374;10.766;2023-05-24T07:30:05;11.80;1.00
3701;DHT22;1866;48.374;10.766;2023-05-24T07:32:33;12.00;1.00
3701;DHT22;1866;48.374;10.766;2023-05-24T07:34:59;12.20;1.00
3701;DHT22;1866;48.374;10.766;2023-05-24T07:37:26;12.20;1.00
3701;DHT22;1866;48.374;10.766;2023-05-24T07:39:53;12.30;1.00
3701;DHT22;1866;48.374;10.766;2023-05-24T07:42:21;12.20;1.00
3701;DHT22;1866;48.374;10.766;2023-05-24T07:44:49;12.20;1.00
3701;DHT22;1866;48.374;10.766;2023-05-24T07:47:16;12.00;1.00
3701;DHT22;1866;48.374;10.766;2023-05-24T07:49:43;12.10;1.00
3701;DHT22;1866;48.374;10.766;2023-05-24T07:52:11;12.20;1.00
3701;DHT22;1866;48.374;10.766;2023-05-24T07:54:38;12.00;1.00
3701;DHT22;1866;48.374;10.766;2023-05-24T07:57:05;11.90;1.00
3701;DHT22;1866;48.374;10.766;2023-05-24T07:59:34;12.10;1.00
3701;DHT22;1866;48.374;10.766;2023-05-24T08:02:03;12.10;1.00
3701;DHT22;1866;48.374;10.766;2023-05-24T08:04:32;12.20;1.00
3701;DHT22;1866;48.374;10.766;2023-05-24T08:06:59;12.50;1.00
3701;DHT22;1866;48.374;10.766;2023-05-24T08:09:27;12.60;1.00
3701;DHT22;1866;48.374;10.766;2023-05-24T08:11:59;12.50;1.00
3701;DHT22;1866;48.374;10.766;2023-05-24T08:14:26;12.50;1.00
3701;DHT22;1866;48.374;10.766;2023-05-24T08:16:53;12.50;1.00
3701;DHT22;1866;48.374;10.766;2023-05-24T08:19:23;12.50;1.00
3701;DHT22;1866;48.374;10.766;2023-05-24T08:21:50;12.80;1.00
3701;DHT22;1866;48.374;10.766;2023-05-24T08:24:17;12.60;1.00
3701;DHT22;1866;48.374;10.766;2023-05-24T08:26:43;12.40;1.00
3701;DHT22;1866;48.374;10.766;2023-05-24T08:29:11;12.20;1.00
3701;DHT22;1866;48.374;10.766;2023-05-24T08:31:40;12.40;1.00
3701;DHT22;1866;48.374;10.766;2023-05-24T08:34:06;12.40;1.00
3701;DHT22;1866;48.374;10.766;2023-05-24T08:36:35;12.60;1.00
3701;DHT22;1866;48.374;10.766;2023-05-24T08:39:03;12.30;1.00
3701;DHT22;1866;48.374;10.766;2023-05-24T08:41:31;12.20;1.00
3701;DHT22;1866;48.374;10.766;2023-05-24T08:44:04;12.30;1.00
3701;DHT22;1866;48.374;10.766;2023-05-24T08:46:34;12.30;1.00
3701;DHT22;1866;48.374;10.766;2023-05-24T08:49:04;12.30;1.00
3701;DHT22;1866;48.374;10.766;2023-05-24T08:51:32;12.20;1.00
3701;DHT22;1866;48.374;10.766;2023-05-24T08:54:01;12.20;1.00
3701;DHT22;1866;48.374;10.766;2023-05-24T08:56:29;12.40;1.00
3701;DHT22;1866;48.374;10.766;2023-05-24T08:58:59;12.10;1.00
3701;DHT22;1866;48.374;10.766;2023-05-24T09:01:26;12.30;1.00
3701;DHT22;1866;48.374;10.766;2023-05-24T09:03:53;12.50;1.00
3701;DHT22;1866;48.374;10.766;2023-05-24T09:06:22;12.10;1.00
3701;DHT22;1866;48.374;10.766;2023-05-24T09:08:51;12.50;1.00
3701;DHT22;1866;48.374;10.766;2023-05-24T09:11:20;12.50;1.00
3701;DHT22;1866;48.374;10.766;2023-05-24T09:13:48;12.60;1.00
3701;DHT22;1866;48.374;10.766;2023-05-24T09:16:16;12.60;1.00
3701;DHT22;1866;48.374;10.766;2023-05-24T09:18:44;12.40;1.00
3701;DHT22;1866;48.374;10.766;2023-05-24T09:21:11;12.70;1.00
3701;DHT22;1866;48.374;10.766;2023-05-24T09:23:40;12.50;1.00
3701;DHT22;1866;48.374;10.766;2023-05-24T09:26:09;12.70;1.00
3701;DHT22;1866;48.374;10.766;2023-05-24T09:28:46;12.60;1.00
3701;DHT22;1866;48.374;10.766;2023-05-24T09:31:13;13.00;1.00
3701;DHT22;1866;48.374;10.766;2023-05-24T09:33:41;13.00;1.00
3701;DHT22;1866;48.374;10.766;2023-05-24T09:36:08;12.80;1.00
3701;DHT22;1866;48.374;10.766;2023-05-24T09:38:36;13.20;1.00
3701;DHT22;1866;48.374;10.766;2023-05-24T09:41:04;13.50;1.00
3701;DHT22;1866;48.374;10.766;2023-05-24T09:43:33;13.40;1.00
3701;DHT22;1866;48.374;10.766;2023-05-24T09:46:03;13.50;1.00
3701;DHT22;1866;48.374;10.766;2023-05-24T09:48:30;13.00;1.00
3701;DHT22;1866;48.374;10.766;2023-05-24T09:51:01;12.90;1.00
3701;DHT22;1866;48.374;10.766;2023-05-24T09:53:31;13.20;1.00
3701;DHT22;1866;48.374;10.766;2023-05-24T09:56:02;13.20;1.00
3701;DHT22;1866;48.374;10.766;2023-05-24T09:58:30;12.90;1.00
3701;DHT22;1866;48.374;10.766;2023-05-24T10:01:07;13.10;1.00
3701;DHT22;1866;48.374;10.766;2023-05-24T10:03:35;13.40;1.00
3701;DHT22;1866;48.374;10.766;2023-05-24T10:06:03;13.50;1.00
3701;DHT22;1866;48.374;10.766;2023-05-24T10:08:33;13.20;1.00
3701;DHT22;1866;48.374;10.766;2023-05-24T10:11:01;13.10;1.00
3701;DHT22;1866;48.374;10.766;2023-05-24T10:13:31;13.30;1.00
3701;DHT22;1866;48.374;10.766;2023-05-24T10:15:58;13.50;1.00
3701;DHT22;1866;48.374;10.766;2023-05-24T10:18:26;12.90;1.00
3701;DHT22;1866;48.374;10.766;2023-05-24T10:20:54;13.30;1.00
3701;DHT22;1866;48.374;10.766;2023-05-24T10:23:28;13.00;1.00
3701;DHT22;1866;48.374;10.766;2023-05-24T10:26:02;13.40;1.00
3701;DHT22;1866;48.374;10.766;2023-05-24T10:28:32;13.30;1.00
3701;DHT22;1866;48.374;10.766;2023-05-24T10:31:04;13.10;1.00
3701;DHT22;1866;48.374;10.766;2023-05-24T10:33:35;13.50;1.00
3701;DHT22;1866;48.374;10.766;2023-05-24T10:36:04;13.60;1.00
3701;DHT22;1866;48.374;10.766;2023-05-24T10:38:33;13.60;1.00
3701;DHT22;1866;48.374;10.766;2023-05-24T10:41:01;13.50;1.00
3701;DHT22;1866;48.374;10.766;2023-05-24T10:43:29;13.40;1.00
3701;DHT22;1866;48.374;10.766;2023-05-24T10:45:57;13.50;1.00
3701;DHT22;1866;48.374;10.766;2023-05-24T10:48:35;13.60;1.00
3701;DHT22;1866;48.374;10.766;2023-05-24T10:51:31;13.60;1.00
3701;DHT22;1866;48.374;10.766;2023-05-24T10:54:10;13.30;1.00
3701;DHT22;1866;48.374;10.766;2023-05-24T10:56:42;13.30;1.00
3701;DHT22;1866;48.374;10.766;2023-05-24T10:59:22;13.80;1.00
3701;DHT22;1866;48.374;10.766;2023-05-24T11:01:54;13.50;1.00
3701;DHT22;1866;48.374;10.766;2023-05-24T11:04:23;13.70;1.00
3701;DHT22;1866;48.374;10.766;2023-05-24T11:06:55;13.50;1.00
3701;DHT22;1866;48.374;10.766;2023-05-24T11:09:22;13.70;1.00
3701;DHT22;1866;48.374;10.766;2023-05-24T11:11:54;13.80;1.00
3701;DHT22;1866;48.374;10.766;2023-05-24T11:14:23;13.80;1.00
3701;DHT22;1866;48.374;10.766;2023-05-24T11:16:50;13.40;1.00
3701;DHT22;1866;48.374;10.766;2023-05-24T11:19:18;13.60;1.00
3701;DHT22;1866;48.374;10.766;2023-05-24T11:21:50;13.70;1.00
3701;DHT22;1866;48.374;10.766;2023-05-24T11:24:19;14.10;1.00
3701;DHT22;1866;48.374;10.766;2023-05-24T11:26:47;14.00;1.00
3701;DHT22;1866;48.374;10.766;2023-05-24T11:29:15;13.90;1.00
3701;DHT22;1866;48.374;10.766;2023-05-24T11:31:49;13.60;1.00
3701;DHT22;1866;48.374;10.766;2023-05-24T11:34:17;14.20;1.00
3701;DHT22;1866;48.374;10.766;2023-05-24T11:36:49;14.20;1.00
3701;DHT22;1866;48.374;10.766;2023-05-24T11:39:17;14.40;1.00
3701;DHT22;1866;48.374;10.766;2023-05-24T11:41:46;14.60;1.00
3701;DHT22;1866;48.374;10.766;2023-05-24T11:44:16;14.60;1.00
3701;DHT22;1866;48.374;10.766;2023-05-24T11:46:47;14.40;1.00
3701;DHT22;1866;48.374;10.766;2023-05-24T11:49:15;14.70;1.00
3701;DHT22;1866;48.374;10.766;2023-05-24T11:51:42;14.30;1.00
3701;DHT22;1866;48.374;10.766;2023-05-24T11:54:10;14.10;1.00
3701;DHT22;1866;48.374;10.766;2023-05-24T11:56:37;14.10;1.00
3701;DHT22;1866;48.374;10.766;2023-05-24T11:59:14;14.20;1.00
3701;DHT22;1866;48.374;10.766;2023-05-24T12:01:42;13.90;1.00
3701;DHT22;1866;48.374;10.766;2023-05-24T12:04:09;14.00;1.00
3701;DHT22;1866;48.374;10.766;2023-05-24T12:06:40;14.30;1.00
3701;DHT22;1866;48.374;10.766;2023-05-24T12:09:12;14.50;1.00
3701;DHT22;1866;48.374;10.766;2023-05-24T12:11:40;14.40;1.00
3701;DHT22;1866;48.374;10.766;2023-05-24T12:14:11;14.50;1.00
3701;DHT22;1866;48.374;10.766;2023-05-24T12:16:38;14.60;1.00
3701;DHT22;1866;48.374;10.766;2023-05-24T12:19:05;14.60;1.00
3701;DHT22;1866;48.374;10.766;2023-05-24T12:21:34;14.80;1.00
3701;DHT22;1866;48.374;10.766;2023-05-24T12:24:07;14.50;1.00
3701;DHT22;1866;48.374;10.766;2023-05-24T12:26:40;14.20;1.00
3701;DHT22;1866;48.374;10.766;2023-05-24T12:29:10;14.30;1.00
3701;DHT22;1866;48.374;10.766;2023-05-24T12:31:39;14.60;1.00
3701;DHT22;1866;48.374;10.766;2023-05-24T12:34:09;14.80;1.00
3701;DHT22;1866;48.374;10.766;2023-05-24T12:36:37;14.60;1.00
3701;DHT22;1866;48.374;10.766;2023-05-24T12:39:18;14.00;1.00
3701;DHT22;1866;48.374;10.766;2023-05-24T12:41:49;14.40;1.00
3701;DHT22;1866;48.374;10.766;2023-05-24T12:44:16;14.60;1.00
3701;DHT22;1866;48.374;10.766;2023-05-24T12:46:45;14.60;1.00
3701;DHT22;1866;48.374;10.766;2023-05-24T12:49:12;14.80;1.00
3701;DHT22;1866;48.374;10.766;2023-05-24T12:51:39;15.30;1.00
3701;DHT22;1866;48.374;10.766;2023-05-24T12:54:07;15.90;1.00
3701;DHT22;1866;48.374;10.766;2023-05-24T12:56:37;14.80;1.00
3701;DHT22;1866;48.374;10.766;2023-05-24T12:59:05;14.70;1.00
3701;DHT22;1866;48.374;10.766;2023-05-24T13:01:32;14.90;1.00
3701;DHT22;1866;48.374;10.766;2023-05-24T13:04:00;15.50;1.00
3701;DHT22;1866;48.374;10.766;2023-05-24T13:06:27;15.60;1.00
3701;DHT22;1866;48.374;10.766;2023-05-24T13:08:54;15.30;1.00
3701;DHT22;1866;48.374;10.766;2023-05-24T13:11:21;14.60;1.00
3701;DHT22;1866;48.374;10.766;2023-05-24T13:13:49;15.00;1.00
3701;DHT22;1866;48.374;10.766;2023-05-24T13:16:17;15.00;1.00
3701;DHT22;1866;48.374;10.766;2023-05-24T13:18:46;14.80;1.00
3701;DHT22;1866;48.374;10.766;2023-05-24T13:21:14;15.20;1.00
3701;DHT22;1866;48.374;10.766;2023-05-24T13:23:44;15.00;1.00
3701;DHT22;1866;48.374;10.766;2023-05-24T13:26:11;15.30;1.00
3701;DHT22;1866;48.374;10.766;2023-05-24T13:28:38;15.50;1.00
3701;DHT22;1866;48.374;10.766;2023-05-24T13:31:05;14.70;1.00
3701;DHT22;1866;48.374;10.766;2023-05-24T13:33:36;14.80;1.00
3701;DHT22;1866;48.374;10.766;2023-05-24T13:36:04;14.60;1.00
3701;DHT22;1866;48.374;10.766;2023-05-24T13:38:32;14.50;1.00
3701;DHT22;1866;48.374;10.766;2023-05-24T13:40:59;14.40;1.00
3701;DHT22;1866;48.374;10.766;2023-05-24T13:43:26;14.30;1.00
3701;DHT22;1866;48.374;10.766;2023-05-24T13:45:54;14.40;1.00
3701;DHT22;1866;48.374;10.766;2023-05-24T13:48:22;14.60;1.00
3701;DHT22;1866;48.374;10.766;2023-05-24T13:50:51;14.40;1.00
3701;DHT22;1866;48.374;10.766;2023-05-24T13:53:17;14.60;1.00
3701;DHT22;1866;48.374;10.766;2023-05-24T13:55:46;14.60;1.00
3701;DHT22;1866;48.374;10.766;2023-05-24T13:58:13;14.40;1.00
3701;DHT22;1866;48.374;10.766;2023-05-24T14:00:41;14.40;1.00
3701;DHT22;1866;48.374;10.766;2023-05-24T14:03:12;14.80;1.00
3701;DHT22;1866;48.374;10.766;2023-05-24T14:05:40;14.40;1.00
3701;DHT22;1866;48.374;10.766;2023-05-24T14:08:08;13.80;1.00
3701;DHT22;1866;48.374;10.766;2023-05-24T14:10:36;13.70;1.00
3701;DHT22;1866;48.374;10.766;2023-05-24T14:13:03;13.80;1.00
3701;DHT22;1866;48.374;10.766;2023-05-24T14:15:30;14.00;1.00
3701;DHT22;1866;48.374;10.766;2023-05-24T14:18:00;13.40;1.00
3701;DHT22;1866;48.374;10.766;2023-05-24T14:20:32;13.60;1.00
3701;DHT22;1866;48.374;10.766;2023-05-24T14:23:01;14.00;1.00
3701;DHT22;1866;48.374;10.766;2023-05-24T14:25:29;13.80;1.00
3701;DHT22;1866;48.374;10.766;2023-05-24T14:28:00;13.40;1.00
3701;DHT22;1866;48.374;10.766;2023-05-24T14:30:30;13.50;1.00
3701;DHT22;1866;48.374;10.766;2023-05-24T14:32:58;13.60;1.00
3701;DHT22;1866;48.374;10.766;2023-05-24T14:35:26;13.70;1.00
3701;DHT22;1866;48.374;10.766;2023-05-24T14:37:56;13.50;1.00
3701;DHT22;1866;48.374;10.766;2023-05-24T14:40:24;13.50;1.00
3701;DHT22;1866;48.374;10.766;2023-05-24T14:42:53;12.90;1.00
3701;DHT22;1866;48.374;10.766;2023-05-24T14:45:20;13.30;1.00
3701;DHT22;1866;48.374;10.766;2023-05-24T14:47:47;13.20;1.00
3701;DHT22;1866;48.374;10.766;2023-05-24T14:50:14;13.00;1.00
3701;DHT22;1866;48.374;10.766;2023-05-24T14:52:41;12.80;1.00
3701;DHT22;1866;48.374;10.766;2023-05-24T14:55:08;13.00;1.00
3701;DHT22;1866;48.374;10.766;2023-05-24T14:57:35;13.10;1.00
3701;DHT22;1866;48.374;10.766;2023-05-24T15:00:04;13.30;1.00
3701;DHT22;1866;48.374;10.766;2023-05-24T15:02:31;13.20;1.00
3701;DHT22;1866;48.374;10.766;2023-05-24T15:04:58;13.00;1.00
3701;DHT22;1866;48.374;10.766;2023-05-24T15:07:25;12.90;1.00
3701;DHT22;1866;48.374;10.766;2023-05-24T15:09:53;13.00;1.00
3701;DHT22;1866;48.374;10.766;2023-05-24T15:12:21;13.00;1.00
3701;DHT22;1866;48.374;10.766;2023-05-24T15:14:48;12.70;1.00
3701;DHT22;1866;48.374;10.766;2023-05-24T15:17:16;12.50;1.00
3701;DHT22;1866;48.374;10.766;2023-05-24T15:19:43;12.50;1.00
3701;DHT22;1866;48.374;10.766;2023-05-24T15:22:10;12.40;1.00
3701;DHT22;1866;48.374;10.766;2023-05-24T15:24:37;12.70;1.00
3701;DHT22;1866;48.374;10.766;2023-05-24T15:27:04;12.50;1.00
3701;DHT22;1866;48.374;10.766;2023-05-24T15:29:32;12.50;1.00
3701;DHT22;1866;48.374;10.766;2023-05-24T15:31:59;12.50;1.00
3701;DHT22;1866;48.374;10.766;2023-05-24T15:34:28;12.30;1.00
3701;DHT22;1866;48.374;10.766;2023-05-24T15:36:56;12.20;1.00
3701;DHT22;1866;48.374;10.766;2023-05-24T15:39:22;12.40;1.00
3701;DHT22;1866;48.374;10.766;2023-05-24T15:41:50;12.10;1.00
3701;DHT22;1866;48.374;10.766;2023-05-24T15:44:17;12.20;1.00
3701;DHT22;1866;48.374;10.766;2023-05-24T15:46:46;12.10;1.00
3701;DHT22;1866;48.374;10.766;2023-05-24T15:49:14;12.10;1.00
3701;DHT22;1866;48.374;10.766;2023-05-24T15:51:42;12.30;1.00
3701;DHT22;1866;48.374;10.766;2023-05-24T15:54:10;12.40;1.00
3701;DHT22;1866;48.374;10.766;2023-05-24T15:56:37;12.40;1.00
3701;DHT22;1866;48.374;10.766;2023-05-24T15:59:06;12.40;1.00
3701;DHT22;1866;48.374;10.766;2023-05-24T16:01:33;12.40;1.00
3701;DHT22;1866;48.374;10.766;2023-05-24T16:04:01;12.50;1.00
3701;DHT22;1866;48.374;10.766;2023-05-24T16:06:28;12.00;1.00
3701;DHT22;1866;48.374;10.766;2023-05-24T16:08:57;11.90;1.00
3701;DHT22;1866;48.374;10.766;2023-05-24T16:11:24;11.80;1.00